Avianca F50 at Manizales on Sep 4th 2012, burst both left main tyres on landing

Last Update: September 6, 2012 / 10:40:36 GMT/Zulu time

Bookmark this article
Incident Facts

Date of incident
Sep 4, 2012

Classification
Incident

Airline
Avianca

Flight number
AV-9916

Aircraft Registration
HK-4497

Aircraft Type
Fokker 50

ICAO Type Designator
F50

An Avianca Fokker 50, registration HK-4497 performing flight AV-9916 from Bogota to Manizales (Colombia) with 30 passengers and 3 crew, landed on Manizales' runway 10 at about 9:19L (14:19Z) but burst both left hand main gear tyres during roll out. The crew managed to keep the aircraft on the runway center line and stopped the aircraft just short of intersection with taxiway A. No injuries occurred.

The airport was closed for about 4.5 hours until the aircraft was removed from the runway.

Metars:
SKMZ 041700Z 00000KT 9999 SCT010 BKN090 19/13 A3037
SKMZ 041500Z 29007KT 9999 SCT010 BKN100 20/14 A3038 RMK HZ/W APCLO
SKMZ 041400Z 09005KT 9999 FEW015 SCT120 13/10 A3035 RMK HZ/W
SKMZ 041300Z 00000KT 9999 FEW020 SCT120 18/11 A3037 RMK FU/E
SKMZ 041200Z 09005KT 9999 FEW030 SCT120 14/10 A3036
Incident Facts

Date of incident
Sep 4, 2012

Classification
Incident

Airline
Avianca

Flight number
AV-9916

Aircraft Registration
HK-4497

Aircraft Type
Fokker 50

ICAO Type Designator
F50

This article is published under license from Avherald.com. © of text by Avherald.com.
Article source

You can read 4 more free articles without a subscription.

Subscribe now and continue reading without any limits!

Are you a subscriber?
Login
Subscribe

Read unlimited articles and receive our daily update briefing. Gain better insights into what is happening in commercial aviation safety.

Free newsletter

Want to know more and stay ahead? Get our free weekly newsletter and join 4931 existing subscribers.

By subscribing, you accept our terms and conditions and confirm that you've read our privacy policy.

Send tip

Support AeroInside by sending a small tip amount.

Related articles

Newest articles

Subscribe today

Are you researching aviation incidents? Get access to AeroInside Insights, unlimited read access and receive the daily newsletter.

Pick your plan and subscribe

Partner

Blockaviation logo

A new way to document and demonstrate airworthiness compliance and aircraft value. Find out more.

Virtual Speech logo

ELITE Simulation Solutions is a leading global provider of Flight Simulation Training Devices, IFR training software as well as flight controls and related services. Find out more.

Get updates

Never miss an article from AeroInside. Subscribe to our free weekly newsletter and join 4931 existing subscribers.

By subscribing, you accept our terms and conditions and that you've read our privacy policy.

AeroInside Blog
Popular aircraft
Airbus A320
Boeing 737-800
Boeing 737-800 MAX
Popular airlines
American Airlines
United
Delta
Air Canada
Lufthansa
British Airways